Flight Track Log - Related Links

Times and Time Zones

All times are in EDT time to prevent confusion due to time zone crossing. See the CPT8773 flight status page for this flight to view local times or setup timezone preferences in your user account.

Time Position Orientation Groundspeed Altitude Reporting Facility
EDT Latitude Longitude Course Direction KTS MPH feet Rate Location/Type
Wed 09:35:15 AM 42.9264 -106.4936 308° West 101 116 7,000  Level Denver Center
Wed 09:36:16 AM 42.9536 -106.4942 359° North 104 120 7,600 639 Climbing Denver Center
Wed 09:37:17 AM 42.9881 -106.4942 360° North 107 123 8,300 590 Climbing Denver Center
Wed 09:38:18 AM 43.0203 -106.4936 North 112 129 8,800 541 Climbing Denver Center
Wed 09:39:00 AM 43.0759 -106.2741 36° Northeast  Level FlightAware Approximate
Wed 09:39:19 AM 43.0519 -106.4914 North 115 132 9,400  Level Denver Center
Wed 09:40:00 AM 43.1001 -106.2959 308° West  Level FlightAware Approximate
Wed 09:40:20 AM 43.0875 -106.4900 North 116 133 10,000  Level Denver Center
Wed 09:41:21 AM 43.1131 -106.4881 North 116 133 10,500 537 Climbing Denver Center
Wed 09:42:23 AM 43.1483 -106.4872 North 114 131 11,100 537 Climbing Denver Center
Wed 09:43:24 AM 43.1842 -106.4856 North 115 132 11,600 443 Climbing Denver Center
Wed 09:44:25 AM 43.2114 -106.5039 334° Northwest 116 133 12,000 197 Climbing Denver Center
Wed 09:45:26 AM 43.2314 -106.5414 306° West 125 144 12,000  Level Denver Center
Wed 09:46:27 AM 43.2569 -106.5875 307° West 135 155 12,000  Level Denver Center
Wed 09:47:28 AM 43.2764 -106.6272 304° West 132 152 12,000  Level Denver Center
Wed 09:48:29 AM 43.3003 -106.6717 306° West 131 151 12,000  Level Denver Center
Wed 09:49:30 AM 43.3222 -106.7114 307° West 136 157 12,000  Level Denver Center
Wed 09:50:31 AM 43.3439 -106.7517 306° West 137 158 12,000  Level Denver Center
Wed 09:51:33 AM 43.3683 -106.8022 304° West 141 162 12,000  Level Denver Center
Wed 09:52:34 AM 43.3878 -106.8431 303° West 136 157 12,000  Level Denver Center
Wed 09:53:35 AM 43.4083 -106.8864 303° West 134 154 12,000  Level Denver Center
Wed 09:54:36 AM 43.4294 -106.9239 308° West 131 151 12,000  Level Denver Center
Wed 09:55:37 AM 43.4525 -106.9664 307° West 125 144 12,000  Level Denver Center
Wed 09:56:38 AM 43.4719 -107.0064 304° West 129 148 12,000  Level Denver Center
Wed 09:57:39 AM 43.4975 -107.0508 308° West 132 152 12,000  Level Denver Center
Wed 09:58:41 AM 43.5156 -107.0892 303° West 126 145 12,000  Level Denver Center
Wed 09:59:42 AM 43.5317 -107.1222 304° West 113 130 12,000  Level Denver Center
Wed 10:00:43 AM 43.5533 -107.1619 307° West 116 133 12,000  Level Denver Center
Wed 10:01:44 AM 43.5739 -107.1964 309° West 120 138 12,000  Level Denver Center
Wed 10:02:45 AM 43.5897 -107.2300 303° West 112 129 12,000  Level Denver Center
Wed 10:03:47 AM 43.6133 -107.2714 308° West 117 135 12,000  Level Denver Center
Wed 10:04:48 AM 43.6339 -107.3083 308° West 122 140 12,000  Level Denver Center
Wed 10:05:49 AM 43.6586 -107.3539 307° West 128 147 12,000  Level Denver Center
Wed 10:06:51 AM 43.6789 -107.3917 307° West 129 148 12,000  Level Denver Center
Wed 10:07:52 AM 43.6989 -107.4317 305° West 129 148 12,000  Level Denver Center
Wed 10:08:53 AM 43.7225 -107.4764 306° West 129 148 12,000  Level Denver Center
Wed 10:09:55 AM 43.7417 -107.5150 305° West 128 147 12,000  Level Denver Center
Wed 10:10:56 AM 43.7658 -107.5589 307° West 128 147 12,000  Level Denver Center
Wed 10:11:58 AM 43.7853 -107.5969 305° West 127 146 12,000  Level Denver Center
Wed 10:12:59 AM 43.8017 -107.6275 307° West 126 145 12,000  Level Denver Center
Wed 10:14:01 AM 43.8281 -107.6792 305° West 127 146 12,000  Level Denver Center

Login

Don't have an account? Register now (free) for customized features, flight alerts, and more!